createdAt,value
2023-04-08T00:02:01.829Z,1.62
2023-04-08T00:04:30.322Z,1.61
2023-04-08T00:06:58.512Z,1.61
2023-04-08T00:09:26.542Z,1.58
2023-04-08T00:11:54.694Z,1.62
2023-04-08T00:14:23.485Z,1.55
2023-04-08T00:16:51.608Z,1.56
2023-04-08T00:19:21.706Z,1.53
2023-04-08T00:21:49.964Z,1.52
2023-04-08T00:24:18.302Z,1.56
2023-04-08T00:26:46.909Z,1.61
2023-04-08T00:29:15.565Z,1.55
2023-04-08T00:31:44.370Z,1.54
2023-04-08T00:34:12.879Z,1.59
2023-04-08T00:36:42.522Z,1.64
2023-04-08T00:39:11.280Z,1.65
2023-04-08T00:41:39.840Z,1.62
2023-04-08T00:44:07.938Z,1.64
2023-04-08T00:46:40.043Z,1.61
2023-04-08T00:49:08.892Z,1.60
2023-04-08T00:51:37.372Z,1.66
2023-04-08T00:54:07.444Z,1.62
2023-04-08T00:56:37.402Z,1.64
2023-04-08T00:59:06.323Z,1.69
2023-04-08T01:01:44.605Z,1.64
2023-04-08T01:04:22.454Z,1.66
2023-04-08T01:06:55.881Z,1.69
2023-04-08T01:09:31.214Z,1.66
2023-04-08T01:12:03.146Z,1.66
2023-04-08T01:14:34.729Z,1.65
2023-04-08T01:17:03.832Z,1.67
2023-04-08T01:19:35.720Z,1.65
2023-04-08T01:22:13.967Z,1.67
2023-04-08T01:24:46.762Z,1.67
2023-04-08T01:27:18.212Z,1.70
2023-04-08T01:29:48.749Z,1.72
2023-04-08T01:32:17.798Z,1.72
2023-04-08T01:34:47.091Z,1.70
2023-04-08T01:37:17.251Z,1.72
2023-04-08T01:39:47.017Z,1.74
2023-04-08T01:42:17.157Z,1.78
2023-04-08T01:44:46.554Z,1.78
2023-04-08T01:47:16.109Z,1.76
2023-04-08T01:49:46.752Z,1.77
2023-04-08T01:52:18.008Z,1.76
2023-04-08T01:54:46.953Z,1.75
2023-04-08T01:57:23.769Z,1.80
2023-04-08T01:59:54.382Z,1.77
2023-04-08T02:02:26.052Z,1.77
2023-04-08T02:04:55.133Z,1.79
2023-04-08T02:07:23.876Z,1.78
2023-04-08T02:09:52.196Z,1.81
2023-04-08T02:12:21.600Z,1.84
2023-04-08T02:15:16.123Z,1.81
2023-04-08T02:17:47.560Z,1.79
2023-04-08T02:20:19.937Z,1.80
2023-04-08T02:22:51.731Z,1.86
2023-04-08T02:25:25.684Z,1.89
2023-04-08T02:27:57.337Z,1.90
2023-04-08T02:30:28.917Z,1.87
2023-04-08T02:32:59.585Z,1.87
2023-04-08T02:35:29.550Z,1.89
2023-04-08T02:37:58.273Z,1.89
2023-04-08T02:40:28.025Z,1.89
2023-04-08T02:43:00.046Z,1.97
2023-04-08T02:45:32.013Z,1.92
2023-04-08T02:48:02.487Z,1.92
2023-04-08T02:50:30.875Z,1.92
2023-04-08T02:52:59.465Z,1.96
2023-04-08T02:55:27.739Z,1.95
2023-04-08T02:57:55.987Z,1.95
2023-04-08T03:00:25.757Z,1.95
2023-04-08T03:02:54.260Z,1.96
2023-04-08T03:05:22.831Z,1.99
2023-04-08T03:07:51.181Z,1.95
2023-04-08T03:10:19.607Z,1.95
2023-04-08T03:12:48.005Z,1.96
2023-04-08T03:15:16.526Z,1.98
2023-04-08T03:17:46.256Z,1.99
2023-04-08T03:20:14.696Z,1.99
2023-04-08T03:22:43.413Z,1.96
2023-04-08T03:25:12.140Z,1.98
2023-04-08T03:27:41.001Z,1.98
2023-04-08T03:30:10.121Z,1.99
2023-04-08T03:32:38.558Z,2.02
2023-04-08T03:35:10.207Z,1.99
2023-04-08T03:37:38.356Z,2.00
2023-04-08T03:40:08.433Z,2.05
2023-04-08T03:42:36.746Z,2.01
2023-04-08T03:45:06.909Z,2.01
2023-04-08T03:47:35.755Z,2.01
2023-04-08T03:50:04.537Z,2.06
2023-04-08T03:52:34.254Z,2.06
2023-04-08T03:55:02.232Z,2.06
2023-04-08T03:57:30.734Z,2.08
2023-04-08T03:59:59.500Z,2.07
2023-04-08T04:02:28.002Z,2.12
2023-04-08T04:04:56.725Z,2.12
2023-04-08T04:07:24.859Z,2.13
2023-04-08T04:09:57.009Z,2.14
2023-04-08T04:12:25.204Z,2.16
2023-04-08T04:14:53.551Z,2.17
2023-04-08T04:17:22.128Z,2.18
2023-04-08T04:19:50.545Z,2.18
2023-04-08T04:22:18.829Z,2.22
2023-04-08T04:24:49.309Z,2.28
2023-04-08T04:27:19.098Z,2.29
2023-04-08T04:29:47.160Z,2.29
2023-04-08T04:32:15.658Z,2.35
2023-04-08T04:34:44.629Z,2.36
2023-04-08T04:37:13.794Z,2.45
2023-04-08T04:39:42.377Z,2.43
2023-04-08T04:42:10.505Z,2.50
2023-04-08T04:44:40.270Z,2.54
2023-04-08T04:47:08.475Z,2.60
2023-04-08T04:49:37.041Z,2.58
2023-04-08T04:52:06.980Z,2.63
2023-04-08T04:54:35.233Z,2.72
2023-04-08T04:57:03.316Z,2.76
2023-04-08T04:59:31.347Z,2.86
2023-04-08T05:02:01.413Z,2.92
2023-04-08T05:04:29.789Z,2.93
2023-04-08T05:07:00.674Z,2.92
2023-04-08T05:09:30.205Z,2.95
2023-04-08T05:11:58.541Z,2.97
2023-04-08T05:14:26.670Z,2.95
2023-04-08T05:16:55.175Z,2.91
2023-04-08T05:19:25.047Z,2.89
2023-04-08T05:21:53.103Z,2.90
2023-04-08T05:24:21.112Z,2.89
2023-04-08T05:26:53.460Z,2.92
2023-04-08T05:29:22.373Z,2.93
2023-04-08T05:31:50.549Z,2.84
2023-04-08T05:34:23.379Z,2.85
2023-04-08T05:36:53.793Z,2.81
2023-04-08T05:39:22.284Z,2.81
2023-04-08T05:41:50.706Z,2.83
2023-04-08T05:44:19.083Z,2.90
2023-04-08T05:46:47.688Z,3.02
2023-04-08T05:49:17.352Z,3.12
2023-04-08T05:51:45.512Z,3.21
2023-04-08T05:54:15.327Z,3.25
2023-04-08T05:56:46.663Z,3.26
2023-04-08T05:59:15.119Z,3.31
2023-04-08T06:01:43.366Z,3.24
2023-04-08T06:04:11.654Z,3.22
2023-04-08T06:06:43.323Z,3.30
2023-04-08T06:09:11.526Z,3.26
2023-04-08T06:11:42.089Z,3.33
2023-04-08T06:14:10.753Z,3.26
2023-04-08T06:16:39.170Z,3.31
2023-04-08T06:19:07.570Z,3.28
2023-04-08T06:21:35.935Z,3.26
2023-04-08T06:24:04.251Z,3.23
2023-04-08T06:26:33.532Z,3.29
2023-04-08T06:29:04.743Z,3.28
2023-04-08T06:31:33.288Z,3.30
2023-04-08T06:34:01.958Z,3.42
2023-04-08T06:36:30.500Z,3.46
2023-04-08T06:38:58.976Z,3.50
2023-04-08T06:41:27.743Z,3.50
2023-04-08T06:44:05.041Z,3.58
2023-04-08T06:46:33.244Z,3.54
2023-04-08T06:49:01.615Z,3.63
2023-04-08T06:51:30.139Z,3.72
2023-04-08T06:53:58.677Z,3.73
2023-04-08T06:56:27.325Z,3.89
2023-04-08T06:58:55.805Z,3.94
2023-04-08T07:01:25.767Z,3.91
2023-04-08T07:03:54.105Z,3.89
2023-04-08T07:06:22.613Z,4.01
2023-04-08T07:08:51.691Z,4.10
2023-04-08T07:11:21.253Z,4.13
2023-04-08T07:13:49.459Z,4.04
2023-04-08T07:16:17.641Z,4.09
2023-04-08T07:18:48.381Z,4.09
2023-04-08T07:21:17.047Z,4.06
2023-04-08T07:23:45.065Z,3.90
2023-04-08T07:26:13.919Z,3.82
2023-04-08T07:28:42.276Z,3.73
2023-04-08T07:31:14.837Z,3.76
2023-04-08T07:33:43.226Z,3.68
2023-04-08T07:36:14.387Z,3.77
2023-04-08T07:38:43.234Z,3.93
2023-04-08T07:41:11.325Z,4.13
2023-04-08T07:43:40.299Z,4.13
2023-04-08T07:46:09.336Z,4.32
2023-04-08T07:48:37.614Z,4.33
2023-04-08T07:51:09.147Z,4.32
2023-04-08T07:53:42.142Z,4.37
2023-04-08T07:56:14.951Z,4.17
2023-04-08T07:58:43.919Z,4.05
2023-04-08T08:01:20.097Z,4.02
2023-04-08T08:03:50.176Z,4.21
2023-04-08T08:06:18.999Z,4.27
2023-04-08T08:08:48.485Z,4.33
2023-04-08T08:11:16.830Z,4.50
2023-04-08T08:13:45.595Z,4.61
2023-04-08T08:16:14.028Z,4.45
2023-04-08T08:18:42.393Z,4.46
2023-04-08T08:21:10.901Z,4.36
2023-04-08T08:23:39.245Z,4.40
2023-04-08T08:26:11.166Z,4.45
2023-04-08T08:28:39.337Z,4.40
2023-04-08T08:31:08.511Z,4.34
2023-04-08T08:33:37.448Z,4.37
2023-04-08T08:36:07.453Z,4.41
2023-04-08T08:38:35.906Z,4.49
2023-04-08T08:41:04.705Z,4.61
2023-04-08T08:43:34.942Z,4.58
2023-04-08T08:46:04.231Z,4.37
2023-04-08T08:48:33.244Z,4.34
2023-04-08T08:51:02.096Z,4.34
2023-04-08T08:53:35.100Z,4.53
2023-04-08T08:56:17.983Z,4.61
2023-04-08T08:58:57.946Z,4.61
2023-04-08T09:01:38.490Z,4.57
2023-04-08T09:04:13.136Z,4.69
2023-04-08T09:06:41.598Z,4.71
2023-04-08T09:09:11.566Z,4.59
2023-04-08T09:11:41.769Z,4.52
2023-04-08T09:14:23.048Z,4.46
2023-04-08T09:16:52.121Z,4.43
2023-04-08T09:19:20.819Z,4.56
2023-04-08T09:22:07.026Z,4.72
2023-04-08T09:24:35.924Z,4.64
2023-04-08T09:27:04.555Z,4.53
2023-04-08T09:29:38.192Z,4.74
2023-04-08T09:32:07.840Z,4.88
2023-04-08T09:34:36.894Z,4.83
2023-04-08T09:37:05.227Z,4.73
2023-04-08T09:39:33.556Z,4.76
2023-04-08T09:42:03.991Z,4.88
2023-04-08T09:44:37.163Z,4.79
2023-04-08T09:47:11.417Z,4.98
2023-04-08T09:49:45.567Z,5.08
2023-04-08T09:52:19.904Z,5.01
2023-04-08T09:54:54.330Z,5.07
2023-04-08T09:57:30.523Z,4.91
2023-04-08T10:00:07.430Z,4.67
2023-04-08T10:02:58.143Z,4.65
2023-04-08T10:05:27.930Z,4.62
2023-04-08T10:07:57.655Z,4.54
2023-04-08T10:10:27.387Z,4.49
2023-04-08T10:12:56.390Z,4.60
2023-04-08T10:15:28.227Z,4.47
2023-04-08T10:17:58.674Z,4.44
2023-04-08T10:20:45.459Z,4.58
2023-04-08T10:23:14.917Z,4.69
2023-04-08T10:25:45.080Z,4.75
2023-04-08T10:28:26.506Z,4.52
2023-04-08T10:30:57.740Z,4.32
2023-04-08T10:33:33.918Z,4.33
2023-04-08T10:36:12.682Z,4.41
2023-04-08T10:38:42.903Z,4.47
2023-04-08T10:41:12.146Z,4.43
2023-04-08T10:43:40.497Z,4.27
2023-04-08T10:46:11.845Z,4.43
2023-04-08T10:48:40.213Z,4.45
2023-04-08T10:51:08.359Z,4.52
2023-04-08T10:53:39.258Z,4.58
2023-04-08T10:56:09.380Z,4.54
2023-04-08T10:58:37.851Z,4.47
2023-04-08T11:01:08.042Z,4.76
2023-04-08T11:03:38.148Z,5.25
2023-04-08T11:06:07.664Z,5.47
2023-04-08T11:08:36.859Z,5.53
2023-04-08T11:11:09.223Z,5.76
2023-04-08T11:13:38.738Z,5.38
2023-04-08T11:16:17.594Z,5.12
2023-04-08T11:18:48.263Z,4.72
2023-04-08T11:21:17.794Z,4.52
2023-04-08T11:23:46.501Z,4.55
2023-04-08T11:26:16.415Z,4.52
2023-04-08T11:28:45.775Z,4.78
2023-04-08T11:31:15.135Z,4.82
2023-04-08T11:33:51.745Z,4.65
2023-04-08T11:36:21.756Z,4.54
2023-04-08T11:38:50.212Z,4.54
2023-04-08T11:41:18.633Z,4.62
2023-04-08T11:43:54.778Z,4.60
2023-04-08T11:46:23.766Z,4.82
2023-04-08T11:49:07.952Z,5.12
2023-04-08T11:51:54.620Z,5.50
2023-04-08T11:54:30.019Z,5.88
2023-04-08T11:56:59.346Z,6.42
2023-04-08T11:59:29.553Z,6.61
2023-04-08T12:01:58.247Z,7.21
2023-04-08T12:04:27.876Z,7.46
2023-04-08T12:06:58.353Z,6.75
2023-04-08T12:09:27.731Z,6.84
2023-04-08T12:11:56.884Z,6.61
2023-04-08T12:14:28.416Z,6.39
2023-04-08T12:16:57.087Z,6.68
2023-04-08T12:19:25.223Z,6.65
2023-04-08T12:21:55.577Z,6.58
2023-04-08T12:24:23.710Z,6.08
2023-04-08T12:26:51.848Z,5.95
2023-04-08T12:29:20.204Z,5.95
2023-04-08T12:31:48.451Z,5.99
2023-04-08T12:34:17.222Z,6.11
2023-04-08T12:36:46.275Z,5.81
2023-04-08T12:39:16.088Z,5.68
2023-04-08T12:41:44.404Z,5.83
2023-04-08T12:44:12.817Z,5.96
2023-04-08T12:46:41.471Z,6.12
2023-04-08T12:49:10.222Z,6.15
2023-04-08T12:51:38.699Z,6.32
2023-04-08T12:54:06.718Z,5.86
2023-04-08T12:56:36.620Z,5.40
2023-04-08T12:59:05.178Z,5.23
2023-04-08T13:01:33.723Z,5.14
2023-04-08T13:04:02.454Z,5.13
2023-04-08T13:06:32.045Z,5.11
2023-04-08T13:09:00.782Z,4.90
2023-04-08T13:11:29.340Z,4.94
2023-04-08T13:13:58.871Z,4.90
2023-04-08T13:16:27.417Z,5.08
2023-04-08T13:18:55.751Z,5.13
2023-04-08T13:21:23.860Z,5.16
2023-04-08T13:23:52.394Z,5.12
2023-04-08T13:26:21.684Z,5.14
2023-04-08T13:28:57.234Z,5.11
2023-04-08T13:31:27.851Z,4.89
2023-04-08T13:33:58.129Z,4.82
2023-04-08T13:36:29.197Z,4.71
2023-04-08T13:38:57.761Z,4.61
2023-04-08T13:41:28.390Z,4.68
2023-04-08T13:43:58.254Z,4.65
2023-04-08T13:46:28.043Z,4.87
2023-04-08T13:48:56.229Z,5.03
2023-04-08T13:51:24.300Z,4.96
2023-04-08T13:53:52.612Z,5.23
2023-04-08T13:56:21.161Z,5.24
2023-04-08T13:58:56.785Z,5.46
2023-04-08T14:01:27.960Z,5.55
2023-04-08T14:03:57.298Z,5.50
2023-04-08T14:06:26.731Z,5.56
2023-04-08T14:08:56.624Z,5.69
2023-04-08T14:11:24.995Z,5.73
2023-04-08T14:13:53.149Z,5.60
2023-04-08T14:16:22.104Z,5.61
2023-04-08T14:18:53.057Z,5.82
2023-04-08T14:21:21.415Z,5.67
2023-04-08T14:23:49.842Z,5.52
2023-04-08T14:26:18.048Z,5.42
2023-04-08T14:28:46.357Z,5.23
2023-04-08T14:31:19.586Z,5.11
2023-04-08T14:33:48.527Z,5.10
2023-04-08T14:36:19.196Z,5.22
2023-04-08T14:38:47.402Z,5.03
2023-04-08T14:41:15.382Z,4.83
2023-04-08T14:43:43.582Z,4.85
2023-04-08T14:46:12.009Z,4.73
2023-04-08T14:48:40.431Z,4.67
2023-04-08T14:51:08.795Z,4.56
2023-04-08T14:53:38.624Z,4.60
2023-04-08T14:56:08.932Z,4.67
2023-04-08T14:58:37.140Z,4.60
2023-04-08T15:01:06.195Z,4.64
2023-04-08T15:03:34.898Z,4.69
2023-04-08T15:06:03.684Z,4.70
2023-04-08T15:08:31.904Z,4.72
2023-04-08T15:11:01.604Z,4.80
2023-04-08T15:13:29.769Z,4.85
2023-04-08T15:15:57.866Z,4.92
2023-04-08T15:18:26.047Z,4.91
2023-04-08T15:20:54.361Z,4.96
2023-04-08T15:23:23.481Z,4.99
2023-04-08T15:25:52.059Z,5.02
2023-04-08T15:28:21.764Z,4.78
2023-04-08T15:30:50.548Z,4.78
2023-04-08T15:33:19.370Z,4.72
2023-04-08T15:35:48.483Z,4.84
2023-04-08T15:38:17.699Z,4.80
2023-04-08T15:40:47.953Z,4.70
2023-04-08T15:43:16.762Z,4.65
2023-04-08T15:45:46.806Z,4.68
2023-04-08T15:48:15.507Z,4.67
2023-04-08T15:50:44.205Z,4.78
2023-04-08T15:53:12.530Z,4.82
2023-04-08T15:55:41.617Z,4.97
2023-04-08T15:58:09.938Z,5.11
2023-04-08T16:00:38.784Z,5.19
2023-04-08T16:03:12.229Z,5.13
2023-04-08T16:05:41.732Z,5.02
2023-04-08T16:08:10.439Z,4.84
2023-04-08T16:10:38.877Z,4.78
2023-04-08T16:13:07.910Z,4.80
2023-04-08T16:15:36.491Z,4.81
2023-04-08T16:18:06.623Z,4.79
2023-04-08T16:20:38.863Z,4.81
2023-04-08T16:23:08.470Z,4.78
2023-04-08T16:25:37.684Z,4.86
2023-04-08T16:28:07.055Z,4.80
2023-04-08T16:30:37.713Z,4.77
2023-04-08T16:33:08.968Z,4.60
2023-04-08T16:35:40.682Z,4.51
2023-04-08T16:38:20.415Z,4.57
2023-04-08T16:40:50.783Z,4.55
2023-04-08T16:43:21.761Z,4.48
2023-04-08T16:45:53.538Z,4.45
2023-04-08T16:48:23.457Z,4.36
2023-04-08T16:50:53.385Z,4.27
2023-04-08T16:53:23.936Z,4.24
2023-04-08T16:55:54.705Z,4.14
2023-04-08T16:58:23.456Z,4.27
2023-04-08T17:00:53.857Z,4.52
2023-04-08T17:03:23.085Z,4.64
2023-04-08T17:05:53.853Z,4.58
2023-04-08T17:08:26.283Z,4.56
2023-04-08T17:10:56.809Z,4.53
2023-04-08T17:13:26.375Z,4.49
2023-04-08T17:15:54.954Z,4.40
2023-04-08T17:18:23.775Z,4.38
2023-04-08T17:20:53.762Z,4.24
2023-04-08T17:23:22.432Z,4.08
2023-04-08T17:25:51.023Z,3.98
2023-04-08T17:28:20.140Z,3.82
2023-04-08T17:30:49.010Z,3.75
2023-04-08T17:33:17.451Z,3.66
2023-04-08T17:35:45.710Z,3.52
2023-04-08T17:38:15.783Z,3.35
2023-04-08T17:40:44.768Z,3.26
2023-04-08T17:43:13.772Z,3.16
2023-04-08T17:45:42.260Z,3.08
2023-04-08T17:48:11.253Z,3.05
2023-04-08T17:50:39.654Z,3.00
2023-04-08T17:53:08.053Z,2.99
2023-04-08T17:55:37.940Z,2.89
2023-04-08T17:58:06.720Z,2.92
2023-04-08T18:00:34.981Z,2.82
2023-04-08T18:03:03.513Z,2.60
2023-04-08T18:05:32.201Z,2.52
2023-04-08T18:08:00.769Z,2.62
2023-04-08T18:10:29.259Z,2.50
2023-04-08T18:13:11.323Z,2.33
2023-04-08T18:15:40.966Z,2.16
2023-04-08T18:18:09.426Z,2.02
2023-04-08T18:20:38.929Z,1.91
2023-04-08T18:23:08.735Z,2.03
2023-04-08T18:25:37.135Z,2.19
2023-04-08T18:28:07.171Z,2.27
2023-04-08T18:30:36.042Z,2.32
2023-04-08T18:33:05.002Z,2.07
2023-04-08T18:35:34.705Z,1.81
2023-04-08T18:38:04.190Z,1.58
2023-04-08T18:40:32.876Z,1.40
2023-04-08T18:43:04.682Z,1.17
2023-04-08T18:45:34.218Z,0.96
2023-04-08T18:48:02.758Z,0.99
2023-04-08T18:50:31.228Z,0.95
2023-04-08T18:52:59.463Z,0.85
2023-04-08T18:55:28.105Z,0.64
2023-04-08T18:57:56.382Z,0.50
2023-04-08T19:00:25.166Z,0.36
2023-04-08T19:02:55.076Z,0.29
2023-04-08T19:05:23.398Z,0.44
2023-04-08T19:07:53.300Z,0.44
2023-04-08T19:10:23.577Z,0.33
2023-04-08T19:12:51.984Z,0.33
2023-04-08T19:15:21.008Z,0.11
2023-04-08T19:17:50.297Z,-0.11
2023-04-08T19:20:20.699Z,-0.16
2023-04-08T19:22:50.137Z,-0.25
2023-04-08T19:25:18.688Z,-0.21
2023-04-08T19:27:46.925Z,-0.24
2023-04-08T19:30:15.625Z,-0.26
2023-04-08T19:32:44.248Z,-0.30
2023-04-08T19:35:13.777Z,-0.37
2023-04-08T19:37:43.487Z,-0.36
2023-04-08T19:40:15.164Z,-0.36
2023-04-08T19:42:43.502Z,-0.37
2023-04-08T19:45:12.847Z,-0.45
2023-04-08T19:47:42.391Z,-0.51
2023-04-08T19:50:12.031Z,-0.52
2023-04-08T19:52:40.486Z,-0.50
2023-04-08T19:55:11.660Z,-0.50
2023-04-08T19:57:40.689Z,-0.56
2023-04-08T20:00:11.754Z,-0.46
2023-04-08T20:02:44.795Z,-0.44
2023-04-08T20:05:16.552Z,-0.43
2023-04-08T20:07:45.277Z,-0.41
2023-04-08T20:10:15.708Z,-0.45
2023-04-08T20:12:43.961Z,-0.40
2023-04-08T20:15:23.614Z,-0.39
2023-04-08T20:17:53.145Z,-0.37
2023-04-08T20:20:21.639Z,-0.49
2023-04-08T20:22:49.901Z,-0.36
2023-04-08T20:25:19.854Z,-0.42
2023-04-08T20:27:48.360Z,-0.41
2023-04-08T20:30:16.749Z,-0.42
2023-04-08T20:32:45.835Z,-0.42
2023-04-08T20:35:14.489Z,-0.60
2023-04-08T20:37:43.224Z,-0.52
2023-04-08T20:40:11.541Z,-0.57
2023-04-08T20:42:41.720Z,-0.74
2023-04-08T20:45:11.266Z,-0.94
2023-04-08T20:47:41.492Z,-1.06
2023-04-08T20:50:11.239Z,-1.08
2023-04-08T20:52:39.555Z,-1.11
2023-04-08T20:55:16.793Z,-1.07
2023-04-08T20:57:49.662Z,-1.03
2023-04-08T21:00:18.648Z,-0.94
2023-04-08T21:02:48.227Z,-0.96
2023-04-08T21:05:17.041Z,-0.97
2023-04-08T21:07:45.780Z,-0.97
2023-04-08T21:10:14.871Z,-0.96
2023-04-08T21:12:43.571Z,-0.88
2023-04-08T21:15:14.327Z,-0.80
2023-04-08T21:17:42.971Z,-0.76
2023-04-08T21:20:12.963Z,-0.75
2023-04-08T21:22:41.056Z,-0.85
2023-04-08T21:25:09.672Z,-1.05
2023-04-08T21:27:38.307Z,-1.11
2023-04-08T21:30:08.565Z,-1.21
2023-04-08T21:32:38.945Z,-1.37
2023-04-08T21:35:07.252Z,-1.44
2023-04-08T21:37:35.687Z,-1.39
2023-04-08T21:40:04.990Z,-1.16
2023-04-08T21:42:33.676Z,-1.09
2023-04-08T21:45:02.031Z,-1.13
2023-04-08T21:47:30.442Z,-1.12
2023-04-08T21:50:00.269Z,-1.24
2023-04-08T21:52:28.451Z,-1.17
2023-04-08T21:54:56.865Z,-1.15
2023-04-08T21:57:25.385Z,-1.17
2023-04-08T21:59:53.492Z,-1.05
2023-04-08T22:02:22.557Z,-0.93
2023-04-08T22:04:52.170Z,-1.05
2023-04-08T22:07:21.998Z,-1.22
2023-04-08T22:09:50.832Z,-1.33
2023-04-08T22:12:18.956Z,-1.34
2023-04-08T22:14:47.968Z,-1.32
2023-04-08T22:17:16.366Z,-1.15
2023-04-08T22:19:45.398Z,-1.04
2023-04-08T22:22:13.911Z,-1.04
2023-04-08T22:24:43.810Z,-1.06
2023-04-08T22:27:12.395Z,-0.95
2023-04-08T22:29:41.023Z,-1.01
2023-04-08T22:32:09.824Z,-1.04
2023-04-08T22:34:38.019Z,-1.00
2023-04-08T22:37:06.822Z,-0.95
2023-04-08T22:39:35.052Z,-1.01
2023-04-08T22:42:05.825Z,-1.10
2023-04-08T22:44:34.601Z,-1.02
2023-04-08T22:47:03.116Z,-1.05
2023-04-08T22:49:31.931Z,-1.07
2023-04-08T22:52:00.932Z,-1.00
2023-04-08T22:54:29.769Z,-1.02
2023-04-08T22:56:58.201Z,-1.02
2023-04-08T22:59:28.327Z,-0.90
2023-04-08T23:01:57.257Z,-0.92
2023-04-08T23:04:25.693Z,-0.93
2023-04-08T23:06:54.169Z,-0.92
2023-04-08T23:09:24.708Z,-0.88
2023-04-08T23:11:53.691Z,-0.88
2023-04-08T23:14:22.438Z,-0.87
2023-04-08T23:16:52.229Z,-0.82
2023-04-08T23:19:20.857Z,-0.63
2023-04-08T23:21:49.314Z,-0.57
2023-04-08T23:24:17.581Z,-0.58
2023-04-08T23:26:46.073Z,-0.58
2023-04-08T23:29:14.468Z,-0.59
2023-04-08T23:31:42.771Z,-0.59
2023-04-08T23:34:13.009Z,-0.50
2023-04-08T23:36:41.210Z,-0.41
2023-04-08T23:39:09.448Z,-0.30
2023-04-08T23:41:37.671Z,-0.36
2023-04-08T23:44:06.451Z,-0.32
2023-04-08T23:46:34.906Z,-0.29
2023-04-08T23:49:02.935Z,-0.13
2023-04-08T23:51:32.686Z,-0.03
2023-04-08T23:54:00.628Z,-0.03
2023-04-08T23:56:28.969Z,-0.25
2023-04-08T23:58:57.480Z,-0.37
